createdAt,value
2019-03-05T00:01:00.359Z,1.10
2019-03-05T00:03:26.319Z,0.90
2019-03-05T00:05:52.268Z,1.30
2019-03-05T00:08:18.232Z,1.10
2019-03-05T00:10:44.247Z,0.98
2019-03-05T00:13:10.192Z,1.22
2019-03-05T00:15:36.113Z,0.82
2019-03-05T00:18:02.512Z,1.50
2019-03-05T00:20:28.434Z,1.62
2019-03-05T00:22:54.549Z,1.20
2019-03-05T00:25:32.332Z,1.20
2019-03-05T00:28:02.057Z,1.02
2019-03-05T00:30:44.970Z,1.40
2019-03-05T00:33:45.273Z,1.30
2019-03-05T00:36:42.146Z,1.00
2019-03-05T00:39:39.003Z,1.45
2019-03-05T00:42:28.649Z,1.10
2019-03-05T00:45:44.630Z,1.25
2019-03-05T00:48:38.662Z,1.65
2019-03-05T00:51:54.475Z,1.00
2019-03-05T00:54:53.387Z,1.25
2019-03-05T00:57:47.370Z,1.10
2019-03-05T01:00:54.929Z,1.05
2019-03-05T01:03:24.716Z,1.32
2019-03-05T01:06:11.206Z,1.00
2019-03-05T01:08:37.174Z,1.05
2019-03-05T01:11:03.087Z,0.90
2019-03-05T01:13:29.307Z,0.85
2019-03-05T01:15:55.274Z,1.07
2019-03-05T01:18:21.295Z,1.57
2019-03-05T01:20:47.355Z,1.05
2019-03-05T01:23:13.281Z,1.00
2019-03-05T01:25:39.262Z,1.50
2019-03-05T01:28:05.274Z,1.30
2019-03-05T01:30:53.064Z,1.32
2019-03-05T01:33:19.788Z,1.57
2019-03-05T01:38:40.336Z,1.40
2019-03-05T01:41:07.713Z,1.12
2019-03-05T01:43:33.648Z,1.40
2019-03-05T01:45:59.762Z,1.60
2019-03-05T01:48:25.701Z,1.52
2019-03-05T01:50:51.764Z,1.85
2019-03-05T01:53:17.723Z,1.35
2019-03-05T01:55:43.642Z,1.75
2019-03-05T01:58:09.614Z,1.60
2019-03-05T02:00:36.244Z,1.45
2019-03-05T02:03:02.181Z,1.40
2019-03-05T02:05:28.252Z,1.20
2019-03-05T02:07:54.168Z,1.77
2019-03-05T02:10:20.527Z,1.70
2019-03-05T02:12:46.539Z,1.30
2019-03-05T02:15:12.576Z,1.20
2019-03-05T02:17:38.537Z,1.45
2019-03-05T02:20:29.218Z,1.50
2019-03-05T02:23:01.899Z,1.27
2019-03-05T02:25:40.585Z,1.65
2019-03-05T02:28:10.322Z,1.40
2019-03-05T02:30:55.305Z,1.62
2019-03-05T02:33:57.115Z,1.40
2019-03-05T02:36:32.681Z,1.70
2019-03-05T02:39:27.164Z,1.45
2019-03-05T02:42:26.660Z,1.77
2019-03-05T02:45:36.527Z,1.30
2019-03-05T02:48:09.010Z,1.25
2019-03-05T02:50:47.740Z,1.52
2019-03-05T02:53:26.309Z,1.30
2019-03-05T02:56:02.075Z,1.37
2019-03-05T02:58:27.822Z,1.45
2019-03-05T03:01:04.876Z,1.35
2019-03-05T03:03:35.512Z,1.10
2019-03-05T03:06:03.384Z,1.50
2019-03-05T03:08:30.057Z,1.35
2019-03-05T03:10:56.001Z,1.40
2019-03-05T03:13:21.977Z,1.52
2019-03-05T03:15:47.904Z,1.65
2019-03-05T03:18:13.824Z,1.32
2019-03-05T03:20:39.767Z,1.45
2019-03-05T03:23:05.686Z,1.65
2019-03-05T03:25:31.746Z,1.90
2019-03-05T03:27:57.661Z,1.77
2019-03-05T03:30:23.613Z,2.00
2019-03-05T03:32:49.584Z,1.80
2019-03-05T03:35:15.627Z,1.85
2019-03-05T03:37:41.546Z,1.50
2019-03-05T03:40:10.398Z,1.50
2019-03-05T03:42:36.354Z,1.70
2019-03-05T03:45:05.085Z,1.35
2019-03-05T03:47:31.074Z,1.90
2019-03-05T03:49:56.975Z,1.50
2019-03-05T03:52:22.919Z,1.50
2019-03-05T03:54:48.859Z,1.55
2019-03-05T03:57:14.777Z,1.32
2019-03-05T03:59:40.705Z,1.22
2019-03-05T04:02:06.735Z,1.70
2019-03-05T04:04:32.672Z,1.07
2019-03-05T04:06:58.726Z,1.27
2019-03-05T04:09:24.649Z,1.20
2019-03-05T04:11:50.611Z,1.10
2019-03-05T04:14:16.661Z,1.37
2019-03-05T04:16:42.590Z,1.37
2019-03-05T04:19:10.431Z,1.40
2019-03-05T04:21:36.530Z,1.72
2019-03-05T04:24:02.458Z,1.55
2019-03-05T04:26:28.509Z,2.08
2019-03-05T04:28:54.445Z,1.82
2019-03-05T04:31:20.398Z,1.80
2019-03-05T04:33:46.342Z,1.95
2019-03-05T04:36:12.301Z,2.50
2019-03-05T04:38:38.224Z,2.75
2019-03-05T04:41:04.176Z,2.77
2019-03-05T04:43:30.092Z,2.20
2019-03-05T04:48:48.341Z,2.40
2019-03-05T04:51:16.176Z,2.05
2019-03-05T04:53:42.108Z,2.37
2019-03-05T04:56:08.038Z,2.35
2019-03-05T04:58:33.987Z,2.58
2019-03-05T05:01:00.013Z,2.00
2019-03-05T05:03:26.049Z,1.80
2019-03-05T05:05:52.123Z,2.35
2019-03-05T05:08:18.060Z,2.67
2019-03-05T05:10:43.992Z,3.35
2019-03-05T05:13:09.920Z,3.05
2019-03-05T05:15:35.837Z,2.45
2019-03-05T05:18:01.787Z,2.65
2019-03-05T05:20:27.816Z,2.65
2019-03-05T05:22:53.774Z,3.83
2019-03-05T05:25:19.710Z,2.90
2019-03-05T05:27:45.629Z,3.35
2019-03-05T05:30:43.660Z,2.83
2019-03-05T05:33:09.634Z,3.37
2019-03-05T05:35:35.691Z,3.40
2019-03-05T05:38:01.613Z,3.00
2019-03-05T05:40:30.378Z,3.70
2019-03-05T05:42:56.329Z,3.10
2019-03-05T05:45:49.011Z,3.10
2019-03-05T05:48:14.965Z,3.42
2019-03-05T05:50:40.886Z,2.95
2019-03-05T05:53:06.826Z,2.80
2019-03-05T05:55:32.741Z,2.62
2019-03-05T05:57:58.668Z,2.87
2019-03-05T06:00:24.622Z,2.72
2019-03-05T06:02:50.560Z,2.77
2019-03-05T06:05:16.519Z,2.80
2019-03-05T06:07:42.565Z,2.87
2019-03-05T06:10:12.628Z,2.98
2019-03-05T06:12:38.684Z,2.95
2019-03-05T06:15:07.848Z,3.35
2019-03-05T06:17:33.786Z,2.58
2019-03-05T06:19:59.730Z,2.98
2019-03-05T06:22:25.656Z,3.83
2019-03-05T06:24:51.587Z,3.90
2019-03-05T06:27:17.505Z,3.60
2019-03-05T06:29:43.452Z,3.30
2019-03-05T06:32:09.383Z,4.33
2019-03-05T06:34:35.321Z,3.15
2019-03-05T06:37:01.228Z,3.90
2019-03-05T06:39:27.166Z,4.40
2019-03-05T06:41:53.106Z,16.23
2019-03-05T06:44:19.154Z,4.35
2019-03-05T06:46:45.103Z,3.40
2019-03-05T06:49:11.120Z,4.85
2019-03-05T06:51:37.050Z,3.70
2019-03-05T06:54:03.017Z,5.22
2019-03-05T06:56:29.075Z,11.48
2019-03-05T06:58:55.029Z,4.95
2019-03-05T07:01:21.162Z,5.12
2019-03-05T07:03:47.104Z,3.60
2019-03-05T07:06:48.114Z,3.45
2019-03-05T07:09:29.909Z,3.83
2019-03-05T07:12:22.568Z,4.60
2019-03-05T07:14:52.332Z,11.95
2019-03-05T07:17:51.088Z,4.70
2019-03-05T07:20:20.839Z,7.12
2019-03-05T07:23:06.031Z,3.60
2019-03-05T07:25:31.977Z,4.42
2019-03-05T07:27:57.909Z,4.75
2019-03-05T07:30:23.873Z,5.60
2019-03-05T07:32:49.786Z,5.72
2019-03-05T07:35:17.732Z,3.80
2019-03-05T07:37:43.681Z,13.15
2019-03-05T07:40:10.339Z,8.35
2019-03-05T07:42:36.257Z,3.95
2019-03-05T07:45:03.609Z,13.95
2019-03-05T07:47:29.542Z,3.90
2019-03-05T07:49:55.449Z,11.12
2019-03-05T07:52:21.430Z,13.35
2019-03-05T07:54:47.376Z,7.33
2019-03-05T07:57:13.427Z,7.33
2019-03-05T07:59:39.373Z,18.60
2019-03-05T08:02:05.279Z,4.25
2019-03-05T08:04:31.243Z,3.55
2019-03-05T08:06:57.174Z,2.77
2019-03-05T08:09:34.622Z,3.37
2019-03-05T08:12:13.614Z,3.17
2019-03-05T08:15:07.368Z,3.02
2019-03-05T08:17:33.617Z,3.22
2019-03-05T08:19:59.566Z,4.67
2019-03-05T08:22:25.474Z,2.83
2019-03-05T08:24:51.400Z,4.28
2019-03-05T08:27:17.354Z,3.50
2019-03-05T08:29:43.276Z,3.22
2019-03-05T08:32:09.332Z,2.80
2019-03-05T08:34:35.255Z,3.17
2019-03-05T08:37:01.200Z,2.90
2019-03-05T08:39:27.161Z,4.60
2019-03-05T08:41:53.227Z,2.30
2019-03-05T08:44:19.150Z,4.70
2019-03-05T08:46:45.070Z,3.02
2019-03-05T08:49:11.021Z,2.00
2019-03-05T08:51:36.941Z,2.37
2019-03-05T08:54:02.869Z,1.90
2019-03-05T08:56:28.783Z,3.70
2019-03-05T08:58:54.708Z,3.75
2019-03-05T09:01:20.664Z,2.65
2019-03-05T09:03:46.608Z,1.95
2019-03-05T09:06:12.527Z,4.83
2019-03-05T09:08:38.648Z,2.30
2019-03-05T09:11:04.582Z,2.50
2019-03-05T09:13:33.008Z,1.40
2019-03-05T09:15:58.350Z,1.77
2019-03-05T09:18:24.260Z,1.50
2019-03-05T09:20:50.319Z,2.40
2019-03-05T09:23:16.235Z,2.12
2019-03-05T09:25:42.225Z,1.70
2019-03-05T09:28:08.142Z,1.67
2019-03-05T09:30:34.049Z,1.77
2019-03-05T09:32:59.984Z,2.65
2019-03-05T09:35:25.976Z,1.70
2019-03-05T09:37:51.888Z,1.85
2019-03-05T09:40:25.583Z,1.25
2019-03-05T09:42:51.516Z,1.70
2019-03-05T09:45:18.837Z,1.80
2019-03-05T09:47:44.846Z,1.45
2019-03-05T09:50:13.093Z,1.30
2019-03-05T09:52:39.042Z,1.45
2019-03-05T09:55:08.470Z,1.70
2019-03-05T09:57:34.496Z,3.33
2019-03-05T10:00:00.422Z,2.00
2019-03-05T10:02:26.363Z,0.88
2019-03-05T10:04:52.277Z,1.17
2019-03-05T10:07:19.229Z,1.07
2019-03-05T10:09:45.576Z,1.30
2019-03-05T10:12:11.512Z,1.20
2019-03-05T10:14:37.461Z,1.17
2019-03-05T10:17:03.486Z,1.40
2019-03-05T10:19:29.440Z,1.10
2019-03-05T10:21:55.378Z,1.07
2019-03-05T10:24:21.298Z,1.20
2019-03-05T10:26:47.249Z,1.17
2019-03-05T10:29:13.174Z,1.57
2019-03-05T10:31:39.116Z,1.20
2019-03-05T10:34:05.055Z,1.30
2019-03-05T10:36:30.995Z,1.40
2019-03-05T10:38:57.814Z,1.05
2019-03-05T10:41:23.843Z,0.85
2019-03-05T10:43:49.801Z,1.20
2019-03-05T10:46:15.824Z,1.60
2019-03-05T10:48:41.869Z,0.90
2019-03-05T10:51:07.983Z,1.27
2019-03-05T10:53:33.983Z,1.00
2019-03-05T10:55:59.849Z,1.22
2019-03-05T10:58:33.934Z,1.50
2019-03-05T11:00:54.600Z,1.20
2019-03-05T11:03:22.122Z,1.00
2019-03-05T11:05:48.284Z,1.40
2019-03-05T11:08:40.421Z,0.90
2019-03-05T11:11:13.587Z,1.27
2019-03-05T11:13:34.309Z,1.12
2019-03-05T11:16:02.843Z,1.05
2019-03-05T11:18:29.971Z,1.20
2019-03-05T11:20:56.112Z,1.25
2019-03-05T11:23:22.140Z,1.17
2019-03-05T11:25:48.209Z,1.10
2019-03-05T11:28:14.229Z,1.42
2019-03-05T11:30:40.172Z,1.00
2019-03-05T11:33:06.098Z,1.17
2019-03-05T11:35:32.633Z,1.20
2019-03-05T11:37:58.548Z,1.10
2019-03-05T11:40:24.503Z,1.77
2019-03-05T11:42:50.412Z,0.98
2019-03-05T11:45:45.050Z,1.02
2019-03-05T11:48:11.454Z,1.25
2019-03-05T11:50:37.406Z,1.00
2019-03-05T11:53:03.347Z,1.00
2019-03-05T11:55:29.293Z,1.05
2019-03-05T11:57:55.480Z,1.37
2019-03-05T12:00:33.121Z,1.10
2019-03-05T12:02:59.161Z,0.93
2019-03-05T12:05:25.073Z,1.17
2019-03-05T12:07:51.135Z,0.98
2019-03-05T12:10:41.833Z,1.02
2019-03-05T12:13:07.787Z,0.80
2019-03-05T12:15:40.667Z,0.80
2019-03-05T12:18:06.672Z,1.10
2019-03-05T12:20:32.607Z,0.90
2019-03-05T12:22:58.633Z,1.40
2019-03-05T12:25:25.106Z,1.20
2019-03-05T12:27:51.127Z,1.10
2019-03-05T12:30:38.859Z,1.40
2019-03-05T12:33:06.562Z,1.20
2019-03-05T12:35:35.293Z,1.67
2019-03-05T12:38:00.492Z,1.00
2019-03-05T12:40:27.020Z,1.00
2019-03-05T12:42:52.977Z,1.22
2019-03-05T12:45:19.892Z,1.32
2019-03-05T12:47:45.809Z,0.90
2019-03-05T12:50:17.771Z,1.27
2019-03-05T12:52:44.404Z,1.67
2019-03-05T12:55:12.113Z,1.47
2019-03-05T12:57:38.831Z,1.52
2019-03-05T13:00:26.971Z,2.83
2019-03-05T13:02:52.919Z,1.25
2019-03-05T13:05:18.839Z,8.85
2019-03-05T13:07:44.785Z,1.90
2019-03-05T13:10:18.787Z,1.40
2019-03-05T13:12:44.766Z,5.55
2019-03-05T13:15:14.422Z,5.83
2019-03-05T13:17:40.329Z,3.67
2019-03-05T13:20:32.394Z,1.77
2019-03-05T13:22:58.303Z,4.85
2019-03-05T13:25:28.364Z,3.33
2019-03-05T13:27:52.501Z,1.40
2019-03-05T13:30:22.077Z,1.00
2019-03-05T13:32:48.079Z,3.17
2019-03-05T13:35:16.712Z,1.17
2019-03-05T13:37:43.149Z,1.25
2019-03-05T13:40:14.819Z,5.87
2019-03-05T13:42:40.742Z,1.07
2019-03-05T13:45:09.147Z,16.77
2019-03-05T13:47:37.124Z,5.50
2019-03-05T13:50:32.641Z,2.67
2019-03-05T13:53:22.765Z,2.35
2019-03-05T13:56:27.151Z,3.65
2019-03-05T13:59:02.910Z,1.05
2019-03-05T14:01:28.841Z,5.30
2019-03-05T14:03:58.578Z,3.12
2019-03-05T14:06:48.047Z,2.72
2019-03-05T14:09:18.072Z,2.72
2019-03-05T14:11:46.726Z,1.30
2019-03-05T14:14:18.286Z,1.10
2019-03-05T14:16:44.929Z,2.12
2019-03-05T14:19:10.828Z,1.25
2019-03-05T14:21:36.794Z,4.00
2019-03-05T14:24:02.686Z,2.75
2019-03-05T14:26:28.616Z,2.20
2019-03-05T14:28:54.529Z,2.90
2019-03-05T14:31:20.471Z,4.42
2019-03-05T14:33:46.368Z,1.75
2019-03-05T14:36:13.341Z,1.67
2019-03-05T14:38:39.283Z,2.65
2019-03-05T14:41:05.194Z,2.17
2019-03-05T14:43:31.110Z,1.10
2019-03-05T14:45:57.118Z,2.22
2019-03-05T14:48:23.090Z,1.17
2019-03-05T14:50:49.073Z,1.40
2019-03-05T14:53:14.985Z,1.67
2019-03-05T14:55:41.011Z,2.30
2019-03-05T14:58:06.962Z,1.82
2019-03-05T15:00:33.012Z,2.30
2019-03-05T15:02:59.094Z,1.15
2019-03-05T15:05:24.995Z,1.25
2019-03-05T15:07:51.015Z,1.42
2019-03-05T15:10:16.999Z,1.00
2019-03-05T15:12:45.147Z,1.10
2019-03-05T15:15:45.384Z,0.90
2019-03-05T15:18:11.696Z,1.30
2019-03-05T15:20:37.649Z,28.83
2019-03-05T15:23:03.692Z,6.80
2019-03-05T15:25:29.775Z,7.83
2019-03-05T15:27:55.837Z,8.93
2019-03-05T15:30:46.621Z,8.80
2019-03-05T15:33:12.686Z,4.30
2019-03-05T15:35:38.811Z,10.00
2019-03-05T15:38:04.743Z,7.92
2019-03-05T15:40:30.675Z,2.83
2019-03-05T15:42:56.760Z,2.12
2019-03-05T15:45:22.672Z,2.50
2019-03-05T15:47:48.709Z,3.10
2019-03-05T15:50:38.464Z,1.00
2019-03-05T15:53:04.791Z,2.22
2019-03-05T15:55:30.659Z,6.85
2019-03-05T15:57:56.601Z,2.00
2019-03-05T16:00:27.229Z,3.52
2019-03-05T16:02:53.334Z,3.30
2019-03-05T16:05:20.840Z,2.22
2019-03-05T16:07:48.089Z,19.42
2019-03-05T16:10:17.130Z,7.42
2019-03-05T16:12:43.641Z,5.15
2019-03-05T16:15:10.838Z,12.80
2019-03-05T16:17:36.764Z,1.22
2019-03-05T16:20:03.912Z,2.12
2019-03-05T16:22:29.831Z,1.42
2019-03-05T16:24:56.258Z,1.35
2019-03-05T16:27:22.399Z,1.87
2019-03-05T16:29:48.537Z,1.40
2019-03-05T16:32:16.482Z,12.15
2019-03-05T16:34:47.300Z,3.10
2019-03-05T16:37:24.437Z,2.77
2019-03-05T16:39:52.342Z,2.62
2019-03-05T16:42:22.985Z,1.80
2019-03-05T16:44:50.855Z,1.10
2019-03-05T16:47:35.223Z,2.65
2019-03-05T16:55:39.273Z,2.25
2019-03-05T16:58:15.112Z,4.25
2019-03-05T17:00:49.044Z,2.58
2019-03-05T17:03:31.054Z,1.90
2019-03-05T17:06:10.900Z,2.83
2019-03-05T17:08:41.507Z,3.02
2019-03-05T17:11:24.202Z,2.33
2019-03-05T17:13:50.531Z,1.85
2019-03-05T17:16:16.809Z,1.90
2019-03-05T17:18:43.081Z,1.40
2019-03-05T17:21:11.881Z,2.75
2019-03-05T17:23:37.948Z,1.77
2019-03-05T17:26:04.295Z,2.12
2019-03-05T17:28:30.299Z,1.55
2019-03-05T17:30:56.597Z,2.72
2019-03-05T17:33:22.762Z,9.43
2019-03-05T17:35:48.702Z,4.33
2019-03-05T17:38:34.522Z,2.37
2019-03-05T17:41:01.224Z,2.50
2019-03-05T17:43:27.470Z,2.30
2019-03-05T17:45:53.378Z,3.85
2019-03-05T17:48:19.325Z,3.65
2019-03-05T17:50:45.460Z,1.75
2019-03-05T17:53:11.409Z,2.55
2019-03-05T17:55:37.570Z,2.70
2019-03-05T17:58:03.891Z,2.87
2019-03-05T18:00:37.578Z,3.25
2019-03-05T18:03:03.705Z,6.10
2019-03-05T18:05:29.972Z,7.15
2019-03-05T18:07:55.923Z,2.10
2019-03-05T18:10:22.948Z,3.10
2019-03-05T18:12:50.297Z,2.55
2019-03-05T18:15:16.311Z,3.58
2019-03-05T18:17:42.358Z,6.72
2019-03-05T18:20:16.611Z,8.30
2019-03-05T18:22:42.633Z,4.47
2019-03-05T18:25:11.059Z,2.80
2019-03-05T18:27:37.027Z,3.47
2019-03-05T18:30:06.812Z,4.00
2019-03-05T18:32:32.754Z,5.08
2019-03-05T18:34:58.673Z,7.25
2019-03-05T18:37:24.836Z,8.15
2019-03-05T18:39:50.977Z,8.20
2019-03-05T18:42:17.714Z,10.65
2019-03-05T18:44:43.983Z,32.30
2019-03-05T18:47:10.028Z,21.25
2019-03-05T18:49:35.959Z,11.03
2019-03-05T18:52:03.608Z,8.60
2019-03-05T18:54:29.772Z,7.80
2019-03-05T18:56:55.797Z,6.45
2019-03-05T18:59:21.805Z,12.95
2019-03-05T19:01:48.078Z,10.23
2019-03-05T19:04:14.329Z,25.20
2019-03-05T19:06:41.216Z,11.95
2019-03-05T19:09:07.145Z,15.95
2019-03-05T19:11:33.124Z,5.67
2019-03-05T19:13:59.443Z,5.30
2019-03-05T19:16:25.491Z,5.75
2019-03-05T19:18:51.417Z,4.90
2019-03-05T19:21:17.377Z,5.10
2019-03-05T19:23:43.540Z,4.90
2019-03-05T19:26:09.513Z,5.75
2019-03-05T19:28:35.528Z,5.25
2019-03-05T19:31:01.589Z,4.87
2019-03-05T19:33:27.546Z,6.10
2019-03-05T19:35:53.467Z,3.50
2019-03-05T19:38:19.481Z,3.37
2019-03-05T19:40:46.626Z,11.20
2019-03-05T19:43:12.565Z,11.25
2019-03-05T19:45:38.495Z,13.50
2019-03-05T19:48:04.642Z,10.70
2019-03-05T19:50:30.670Z,26.48
2019-03-05T19:52:56.833Z,11.60
2019-03-05T19:55:24.382Z,26.33
2019-03-05T19:57:50.833Z,33.15
2019-03-05T20:03:21.361Z,57.15
2019-03-05T20:05:47.299Z,65.97
2019-03-05T20:08:13.316Z,34.60
2019-03-05T20:10:39.251Z,17.70
2019-03-05T20:13:07.376Z,31.85
2019-03-05T20:15:33.399Z,20.20
2019-03-05T20:17:59.370Z,24.77
2019-03-05T20:20:31.553Z,47.23
2019-03-05T20:22:57.517Z,53.28
2019-03-05T20:25:31.176Z,72.87
2019-03-05T20:27:57.098Z,15.93
2019-03-05T20:30:23.564Z,30.77
2019-03-05T20:32:49.840Z,14.30
2019-03-05T20:35:16.461Z,8.63
2019-03-05T20:37:45.049Z,12.60
2019-03-05T20:40:13.472Z,14.93
2019-03-05T20:42:39.573Z,7.27
2019-03-05T20:45:14.695Z,4.17
2019-03-05T20:47:40.631Z,14.35
2019-03-05T20:50:09.758Z,4.00
2019-03-05T20:52:35.714Z,5.50
2019-03-05T20:55:04.664Z,12.40
2019-03-05T20:57:30.634Z,9.60
2019-03-05T20:59:56.563Z,70.08
2019-03-05T21:02:22.580Z,26.35
2019-03-05T21:04:48.547Z,16.85
2019-03-05T21:07:14.468Z,15.55
2019-03-05T21:09:40.589Z,12.80
2019-03-05T21:12:06.510Z,3.42
2019-03-05T21:14:32.794Z,11.75
2019-03-05T21:16:58.868Z,10.80
2019-03-05T21:19:24.940Z,7.08
2019-03-05T21:21:50.908Z,12.73
2019-03-05T21:24:16.832Z,10.40
2019-03-05T21:26:42.767Z,5.65
2019-03-05T21:29:08.818Z,5.00
2019-03-05T21:31:34.925Z,7.10
2019-03-05T21:34:00.925Z,4.40
2019-03-05T21:36:26.945Z,2.37
2019-03-05T21:38:52.871Z,6.08
2019-03-05T21:41:18.808Z,4.00
2019-03-05T21:43:44.864Z,5.05
2019-03-05T21:46:14.389Z,3.80
2019-03-05T21:48:40.318Z,2.33
2019-03-05T21:51:06.233Z,13.88
2019-03-05T21:53:32.187Z,10.60
2019-03-05T21:55:58.132Z,13.53
2019-03-05T21:58:24.068Z,17.12
2019-03-05T22:00:50.012Z,23.55
2019-03-05T22:03:15.945Z,21.48
2019-03-05T22:05:41.882Z,9.28
2019-03-05T22:08:07.801Z,6.17
2019-03-05T22:10:33.920Z,4.65
2019-03-05T22:12:59.844Z,9.65
2019-03-05T22:15:27.110Z,6.72
2019-03-05T22:17:53.071Z,8.33
2019-03-05T22:20:19.626Z,7.40
2019-03-05T22:22:45.625Z,5.00
2019-03-05T22:25:14.855Z,3.10
2019-03-05T22:27:40.767Z,7.10
2019-03-05T22:30:13.401Z,6.08
2019-03-05T22:32:39.336Z,1.47
2019-03-05T22:35:07.071Z,2.17
2019-03-05T22:37:32.992Z,1.65
2019-03-05T22:39:58.943Z,1.70
2019-03-05T22:42:24.893Z,1.87
2019-03-05T22:44:51.010Z,1.40
2019-03-05T22:47:16.933Z,0.98
2019-03-05T22:49:42.970Z,2.12
2019-03-05T22:52:08.908Z,1.20
2019-03-05T22:54:34.925Z,1.10
2019-03-05T22:57:00.883Z,0.80
2019-03-05T22:59:26.806Z,0.90
2019-03-05T23:01:52.767Z,0.95
2019-03-05T23:04:18.798Z,0.70
2019-03-05T23:06:44.877Z,0.80
2019-03-05T23:09:13.018Z,0.82
2019-03-05T23:11:38.960Z,0.60
2019-03-05T23:14:05.115Z,0.57
2019-03-05T23:16:31.254Z,0.82
2019-03-05T23:18:57.404Z,0.90
2019-03-05T23:21:23.362Z,0.88
2019-03-05T23:23:49.489Z,0.90
2019-03-05T23:26:15.634Z,0.88
2019-03-05T23:28:41.563Z,1.30
2019-03-05T23:31:08.093Z,0.88
2019-03-05T23:33:34.030Z,0.88
2019-03-05T23:35:59.954Z,0.90
2019-03-05T23:38:25.905Z,0.90
2019-03-05T23:40:51.918Z,2.47
2019-03-05T23:43:17.894Z,3.02
2019-03-05T23:45:46.159Z,2.37
2019-03-05T23:48:12.083Z,3.08
2019-03-05T23:50:38.000Z,3.77
2019-03-05T23:53:03.943Z,1.20
2019-03-05T23:55:29.921Z,0.80
2019-03-05T23:57:55.962Z,0.93
